Time;durP1;ratioP1;P1;durP2;ratioP2;P2;SDS_P1;SDS_P2;PMS_P1;PMS_P2;Temp;Humidity;BMP_temperature;BMP_pressure;BME280_temperature;BME280_humidity;BME280_pressure;Samples;Min_cycle;Max_cycle;Signal;HPM_P1;HPM_P2
2022/11/02 00:02:03;;;;;;;4.78;1.40;;;12.30;99.90;;;;;;4924688;29;20047;-66
2022/11/02 00:04:29;;;;;;;5.88;1.40;;;12.30;99.90;;;;;;4929067;29;20484;-65
2022/11/02 00:06:54;;;;;;;6.28;1.65;;;12.20;99.90;;;;;;4913733;29;20126;-66
2022/11/02 00:09:20;;;;;;;5.80;1.63;;;11.80;99.90;;;;;;4927006;29;20082;-64
2022/11/02 00:11:45;;;;;;;7.07;1.73;;;11.70;99.90;;;;;;4913672;29;20134;-65
2022/11/02 00:14:11;;;;;;;6.43;1.40;;;11.60;99.90;;;;;;4933572;29;20055;-63
2022/11/02 00:16:39;;;;;;;5.70;1.55;;;11.60;99.90;;;;;;4927305;29;20039;-65
2022/11/02 00:19:06;;;;;;;5.47;1.52;;;11.60;99.90;;;;;;4926375;29;20489;-65
2022/11/02 00:21:32;;;;;;;5.55;1.75;;;11.60;99.90;;;;;;4915105;29;20610;-64
2022/11/02 00:23:59;;;;;;;10.60;1.52;;;11.70;99.90;;;;;;4929737;29;20139;-63
2022/11/02 00:26:26;;;;;;;5.85;1.40;;;11.70;99.90;;;;;;4929197;29;20488;-64
2022/11/02 00:28:52;;;;;;;6.28;1.38;;;11.60;99.90;;;;;;4933073;29;20376;-63
2022/11/02 00:31:18;;;;;;;8.27;1.50;;;11.60;99.90;;;;;;4897653;29;20130;-64
2022/11/02 00:33:44;;;;;;;9.95;2.08;;;11.80;99.90;;;;;;4910479;29;20115;-64
2022/11/02 00:36:09;;;;;;;6.82;1.33;;;11.70;99.90;;;;;;4929341;29;20047;-63
2022/11/02 00:38:35;;;;;;;5.53;1.58;;;11.80;99.90;;;;;;4929708;29;20050;-63
2022/11/02 00:41:00;;;;;;;8.73;1.77;;;11.90;99.90;;;;;;4912492;29;20520;-65
2022/11/02 00:43:26;;;;;;;8.10;1.42;;;11.90;99.90;;;;;;4913595;29;20038;-64
2022/11/02 00:45:51;;;;;;;6.55;1.50;;;11.90;99.90;;;;;;4929347;29;20126;-63
2022/11/02 00:48:17;;;;;;;9.70;1.77;;;11.90;99.90;;;;;;4926930;29;20056;-64
2022/11/02 00:50:42;;;;;;;6.35;1.65;;;11.90;99.90;;;;;;4928123;29;20171;-64
2022/11/02 00:53:08;;;;;;;4.95;1.35;;;11.90;99.90;;;;;;4930092;29;20052;-64
2022/11/02 00:55:34;;;;;;;8.80;1.63;;;11.90;99.90;;;;;;4910983;29;20036;-63
2022/11/02 00:57:59;;;;;;;10.32;1.98;;;11.90;99.90;;;;;;4909619;29;20051;-64
2022/11/02 01:00:25;;;;;;;11.35;1.75;;;11.80;99.90;;;;;;4929594;29;20062;-64
2022/11/02 01:02:50;;;;;;;11.32;1.50;;;11.50;99.90;;;;;;4907278;29;20040;-64
2022/11/02 01:05:16;;;;;;;10.60;1.67;;;11.30;99.90;;;;;;4912289;29;20051;-64
2022/11/02 01:07:41;;;;;;;8.82;1.67;;;11.10;99.90;;;;;;4909721;29;20460;-63
2022/11/02 01:10:09;;;;;;;7.32;1.90;;;11.00;99.90;;;;;;4895476;29;20050;-64
2022/11/02 01:12:39;;;;;;;11.75;2.00;;;11.00;99.90;;;;;;4912527;29;20063;-63
2022/11/02 01:15:09;;;;;;;11.00;2.17;;;11.00;99.90;;;;;;4925736;29;20046;-64
2022/11/02 01:17:35;;;;;;;9.20;2.30;;;11.00;99.90;;;;;;4930279;29;20069;-63
2022/11/02 01:20:01;;;;;;;7.30;1.83;;;11.00;99.90;;;;;;4899717;29;20048;-64
2022/11/02 01:22:27;;;;;;;10.70;2.17;;;11.00;99.90;;;;;;4929670;29;20488;-63
2022/11/02 01:24:53;;;;;;;9.23;2.10;;;11.00;99.90;;;;;;4925871;29;20130;-64
2022/11/02 01:27:18;;;;;;;10.75;2.10;;;11.10;99.90;;;;;;4914770;29;20507;-64
2022/11/02 01:29:44;;;;;;;9.30;1.95;;;11.00;99.90;;;;;;4913215;29;20119;-64
2022/11/02 01:32:09;;;;;;;11.32;2.03;;;11.00;99.90;;;;;;4910903;29;20177;-65
2022/11/02 01:34:35;;;;;;;12.05;2.47;;;11.00;99.90;;;;;;4929709;29;20068;-64
2022/11/02 01:37:00;;;;;;;12.05;2.63;;;11.00;99.90;;;;;;4924731;29;20522;-64
2022/11/02 01:39:26;;;;;;;10.55;2.20;;;11.00;99.90;;;;;;4927215;29;20048;-64
2022/11/02 01:41:52;;;;;;;14.10;2.00;;;10.90;99.90;;;;;;4927067;29;20051;-64
2022/11/02 01:44:36;;;;;;;9.25;2.35;;;10.90;99.90;;;;;;4930949;29;20038;-65
2022/11/02 01:47:11;;;;;;;11.07;2.33;;;10.90;99.90;;;;;;4930051;29;20701;-65
2022/11/02 01:49:40;;;;;;;8.10;2.00;;;10.80;99.90;;;;;;4926401;29;20062;-66
2022/11/02 01:52:18;;;;;;;12.48;2.53;;;10.80;99.90;;;;;;4932688;29;20484;-64
2022/11/02 01:54:57;;;;;;;13.45;2.70;;;10.80;99.90;;;;;;4933077;29;20075;-64
2022/11/02 01:57:26;;;;;;;10.68;2.55;;;10.80;99.90;;;;;;4925947;29;20102;-63
2022/11/02 02:00:05;;;;;;;9.60;2.35;;;10.80;99.90;;;;;;4932503;29;20098;-64
2022/11/02 02:02:33;;;;;;;10.18;2.53;;;10.70;99.90;;;;;;4924930;29;20448;-64
2022/11/02 02:05:04;;;;;;;9.88;2.33;;;10.70;99.90;;;;;;4932329;29;20056;-64
2022/11/02 02:07:32;;;;;;;11.90;2.42;;;10.60;99.90;;;;;;4929660;29;20044;-63
2022/11/02 02:09:59;;;;;;;13.27;2.58;;;10.60;99.90;;;;;;4931307;29;20472;-63
2022/11/02 02:12:25;;;;;;;11.45;2.58;;;10.60;99.90;;;;;;4918136;29;20032;-63
2022/11/02 02:14:52;;;;;;;12.80;2.60;;;10.60;99.90;;;;;;4932361;29;20152;-63
2022/11/02 02:17:32;;;;;;;7.30;2.38;;;10.50;99.90;;;;;;4902319;29;20086;-63
2022/11/02 02:20:01;;;;;;;12.90;2.40;;;10.50;99.90;;;;;;4932751;29;20078;-64
2022/11/02 02:22:55;;;;;;;12.85;3.38;;;10.60;99.90;;;;;;4930425;29;20401;-64
2022/11/02 02:25:31;;;;;;;12.23;2.63;;;10.50;99.90;;;;;;4914877;29;20039;-65
2022/11/02 02:28:29;;;;;;;10.93;2.70;;;10.60;99.90;;;;;;4932846;29;20044;-63
2022/11/02 02:31:01;;;;;;;9.70;2.58;;;10.60;99.90;;;;;;4932258;29;20043;-63
2022/11/02 02:33:34;;;;;;;12.18;3.35;;;10.60;99.90;;;;;;4931199;29;20376;-65
2022/11/02 02:36:09;;;;;;;12.85;2.75;;;10.70;99.90;;;;;;4929384;29;20044;-63
2022/11/02 02:38:45;;;;;;;9.63;2.92;;;10.70;99.90;;;;;;4930624;29;20044;-64
2022/11/02 02:41:22;;;;;;;9.85;2.65;;;10.70;99.90;;;;;;4928910;29;20051;-64
2022/11/02 02:43:59;;;;;;;13.23;2.78;;;10.70;99.90;;;;;;4932168;29;20058;-64
2022/11/02 02:46:28;;;;;;;9.57;2.63;;;10.70;99.90;;;;;;4932264;29;20065;-64
2022/11/02 02:48:56;;;;;;;7.97;2.90;;;10.70;99.90;;;;;;4928338;29;20468;-65
2022/11/02 02:51:29;;;;;;;8.77;2.40;;;10.70;99.90;;;;;;4928061;29;20031;-63
2022/11/02 02:54:06;;;;;;;9.07;2.50;;;10.70;99.90;;;;;;4932315;29;20087;-64
2022/11/02 02:56:40;;;;;;;10.38;2.10;;;10.70;99.90;;;;;;4914043;29;20055;-62
2022/11/02 02:59:31;;;;;;;8.82;2.35;;;10.60;99.90;;;;;;4915663;29;20056;-65
2022/11/02 03:01:57;;;;;;;9.65;2.47;;;10.60;99.90;;;;;;4924215;29;20059;-63
2022/11/02 03:04:23;;;;;;;4.82;1.80;;;10.60;99.90;;;;;;4928687;29;20055;-66
2022/11/02 03:06:53;;;;;;;7.75;2.00;;;10.50;99.90;;;;;;4929635;29;20048;-64
2022/11/02 03:09:27;;;;;;;8.05;2.33;;;10.50;99.90;;;;;;4933358;29;20122;-66
2022/11/02 03:12:07;;;;;;;7.35;1.60;;;10.40;99.90;;;;;;4926247;29;20508;-63
2022/11/02 03:14:44;;;;;;;6.40;1.80;;;10.50;99.90;;;;;;4917219;29;20094;-63
2022/11/02 03:17:18;;;;;;;7.43;2.22;;;10.50;99.90;;;;;;4930716;29;20058;-63
2022/11/02 03:19:49;;;;;;;8.52;1.70;;;10.50;99.90;;;;;;4916213;29;20048;-64
2022/11/02 03:22:21;;;;;;;5.57;1.77;;;10.40;99.90;;;;;;4927781;29;20051;-64
2022/11/02 03:25:10;;;;;;;7.85;2.05;;;10.40;99.90;;;;;;4926136;29;20044;-63
2022/11/02 03:28:08;;;;;;;7.25;1.63;;;10.40;99.90;;;;;;4908052;29;20044;-64
2022/11/02 03:30:42;;;;;;;7.45;1.63;;;10.30;99.90;;;;;;4917113;29;20036;-65
2022/11/02 03:33:46;;;;;;;7.90;1.60;;;10.30;99.90;;;;;;4925366;29;20429;-65
2022/11/02 03:36:18;;;;;;;5.60;1.27;;;10.20;99.90;;;;;;4892197;29;20051;-63
2022/11/02 03:38:49;;;;;;;4.20;1.73;;;10.20;99.90;;;;;;4924370;29;20036;-64
2022/11/02 03:41:16;;;;;;;9.68;1.55;;;10.20;99.90;;;;;;4895911;29;20689;-63
2022/11/02 03:43:44;;;;;;;5.45;1.75;;;10.10;99.90;;;;;;4931596;29;20071;-65
2022/11/02 03:46:11;;;;;;;4.35;1.42;;;10.10;99.90;;;;;;4928132;29;20048;-64
2022/11/02 03:48:42;;;;;;;5.50;1.65;;;10.00;99.90;;;;;;4931648;29;20031;-64
2022/11/02 03:51:12;;;;;;;4.63;1.35;;;10.00;99.90;;;;;;4931099;29;20040;-63
2022/11/02 03:54:06;;;;;;;11.40;1.73;;;10.00;99.90;;;;;;4930006;29;20144;-64
2022/11/02 03:56:37;;;;;;;6.97;1.38;;;9.90;99.90;;;;;;4923316;29;20138;-63
2022/11/02 03:59:02;;;;;;;5.07;1.45;;;9.90;99.90;;;;;;4909875;29;20369;-62
2022/11/02 04:01:30;;;;;;;5.70;1.27;;;10.00;99.90;;;;;;4908027;29;20063;-64
2022/11/02 04:03:56;;;;;;;4.35;1.63;;;10.00;99.90;;;;;;4930886;29;20054;-66
2022/11/02 04:06:22;;;;;;;10.63;1.30;;;10.00;99.90;;;;;;4923302;29;20043;-63
2022/11/02 04:08:48;;;;;;;7.00;1.10;;;10.00;99.90;;;;;;4907209;29;20043;-63
2022/11/02 04:16:43;;;;;;;9.07;1.33;;;10.00;99.90;;;;;;4928958;29;20043;-64
2022/11/02 04:19:28;;;;;;;6.68;1.30;;;10.00;99.90;;;;;;4932679;29;20514;-64
2022/11/02 04:27:25;;;;;;;4.22;0.98;;;10.00;99.90;;;;;;4927155;29;20047;-63
2022/11/02 04:29:51;;;;;;;4.88;1.20;;;9.90;99.90;;;;;;4927916;29;20047;-63
2022/11/02 04:35:02;;;;;;;6.22;1.42;;;9.90;99.90;;;;;;4927450;29;20452;-63
2022/11/02 04:40:12;;;;;;;7.35;1.20;;;10.00;99.90;;;;;;4929910;29;20056;-63
2022/11/02 04:42:37;;;;;;;7.57;1.58;;;10.00;99.90;;;;;;4909642;29;20067;-63
2022/11/02 04:45:03;;;;;;;4.35;1.15;;;10.00;99.90;;;;;;4924573;29;20115;-64
2022/11/02 04:47:29;;;;;;;6.28;1.40;;;10.10;99.90;;;;;;4927965;29;20039;-62
2022/11/02 04:49:54;;;;;;;3.53;1.30;;;10.10;99.90;;;;;;4923308;29;20067;-63
2022/11/02 04:52:20;;;;;;;7.68;1.70;;;10.10;99.90;;;;;;4928997;29;20055;-63
2022/11/02 04:54:45;;;;;;;8.63;1.77;;;10.10;99.90;;;;;;4929959;29;20088;-62
2022/11/02 04:57:11;;;;;;;6.90;1.67;;;10.10;99.90;;;;;;4924729;29;20047;-62
2022/11/02 04:59:36;;;;;;;4.13;1.25;;;10.30;99.90;;;;;;4933339;29;20048;-62
2022/11/02 05:02:02;;;;;;;7.40;1.40;;;10.40;99.90;;;;;;4927637;29;20052;-63
2022/11/02 05:04:28;;;;;;;8.07;2.00;;;10.30;99.90;;;;;;4928714;29;20469;-63
2022/11/02 05:06:53;;;;;;;9.13;1.63;;;10.20;99.90;;;;;;4928628;29;20036;-64
2022/11/02 05:09:19;;;;;;;10.00;1.40;;;10.20;99.90;;;;;;4928093;29;20396;-63
2022/11/02 05:11:44;;;;;;;6.03;2.00;;;10.20;99.90;;;;;;4928403;29;20408;-62
2022/11/02 05:14:10;;;;;;;5.90;1.73;;;10.20;99.90;;;;;;4913817;29;20122;-65
2022/11/02 05:16:35;;;;;;;6.28;1.75;;;10.20;99.90;;;;;;4926351;29;20063;-65
2022/11/02 05:19:01;;;;;;;6.82;1.73;;;10.20;99.90;;;;;;4932115;29;20046;-65
2022/11/02 05:21:27;;;;;;;7.38;1.42;;;10.20;99.90;;;;;;4921507;29;20042;-64
2022/11/02 05:23:52;;;;;;;12.57;2.15;;;10.10;99.90;;;;;;4914230;29;20067;-63
2022/11/02 05:26:18;;;;;;;7.25;2.10;;;10.10;99.90;;;;;;4928772;29;20043;-63
2022/11/02 05:28:43;;;;;;;6.78;1.73;;;10.10;99.90;;;;;;4918431;29;20094;-64
2022/11/02 05:31:09;;;;;;;7.38;2.03;;;10.10;99.90;;;;;;4900900;29;20043;-63
2022/11/02 05:33:34;;;;;;;10.43;1.75;;;10.10;99.90;;;;;;4932569;29;20059;-63
2022/11/02 05:36:00;;;;;;;10.52;1.98;;;10.20;99.90;;;;;;4914262;29;20054;-64
2022/11/02 05:38:26;;;;;;;7.95;2.17;;;10.20;99.90;;;;;;4929845;29;20130;-63
2022/11/02 05:40:57;;;;;;;6.38;1.50;;;10.20;99.90;;;;;;4932246;29;20514;-63
2022/11/02 05:43:23;;;;;;;9.93;1.90;;;10.20;99.90;;;;;;4898983;29;20043;-63
2022/11/02 05:45:57;;;;;;;6.10;1.75;;;10.20;99.90;;;;;;4927203;29;20432;-63
2022/11/02 05:48:23;;;;;;;7.13;2.15;;;10.20;99.90;;;;;;4932425;29;20118;-64
2022/11/02 05:50:53;;;;;;;11.65;2.25;;;10.20;99.90;;;;;;4911487;29;20044;-65
2022/11/02 05:53:18;;;;;;;8.40;2.35;;;10.30;99.90;;;;;;4934219;29;20202;-62
2022/11/02 05:55:44;;;;;;;6.03;1.92;;;10.20;99.90;;;;;;4933115;29;20472;-64
2022/11/02 05:58:10;;;;;;;10.13;2.38;;;10.30;99.90;;;;;;4914420;29;20492;-63
2022/11/02 06:00:35;;;;;;;6.57;1.88;;;10.20;99.90;;;;;;4915095;29;20050;-63
2022/11/02 06:03:01;;;;;;;8.20;1.75;;;10.20;99.90;;;;;;4932448;29;20471;-64
2022/11/02 06:05:27;;;;;;;8.77;1.77;;;10.20;99.90;;;;;;4933603;29;20040;-64
2022/11/02 06:07:57;;;;;;;7.95;2.13;;;10.10;99.90;;;;;;4928954;29;20035;-63
2022/11/02 06:10:22;;;;;;;8.27;1.90;;;10.10;99.90;;;;;;4915173;29;20050;-63
2022/11/02 06:12:55;;;;;;;8.15;2.03;;;10.20;99.90;;;;;;4931586;29;20879;-63
2022/11/02 06:15:20;;;;;;;7.85;1.98;;;10.20;99.90;;;;;;4914386;29;20134;-62
2022/11/02 06:17:46;;;;;;;7.07;2.25;;;10.20;99.90;;;;;;4929592;29;20115;-63
2022/11/02 06:20:11;;;;;;;12.57;2.50;;;10.20;99.90;;;;;;4925512;29;20044;-64
2022/11/02 06:22:41;;;;;;;10.98;2.20;;;10.20;99.90;;;;;;4932354;29;20058;-63
2022/11/02 06:25:07;;;;;;;12.73;2.25;;;10.20;99.90;;;;;;4934675;29;20123;-65
2022/11/02 06:27:32;;;;;;;10.93;2.50;;;10.20;99.90;;;;;;4923241;29;20051;-63
2022/11/02 06:29:58;;;;;;;11.05;2.53;;;10.20;99.90;;;;;;4929233;29;20043;-63
2022/11/02 06:32:24;;;;;;;7.25;2.22;;;10.20;99.90;;;;;;4928098;29;20498;-64
2022/11/02 06:34:49;;;;;;;11.07;2.05;;;10.20;99.90;;;;;;4932893;29;20040;-64
2022/11/02 06:37:15;;;;;;;9.23;2.55;;;10.10;99.90;;;;;;4931330;29;20538;-62
2022/11/02 06:39:40;;;;;;;9.45;2.55;;;10.10;99.90;;;;;;4932611;29;20170;-62
2022/11/02 06:42:06;;;;;;;8.82;2.25;;;10.10;99.90;;;;;;4929441;29;20042;-62
2022/11/02 06:44:32;;;;;;;12.90;2.33;;;10.10;99.90;;;;;;4932331;29;20039;-63
2022/11/02 06:46:57;;;;;;;12.25;2.20;;;10.10;99.90;;;;;;4925783;29;20130;-62
2022/11/02 06:49:23;;;;;;;10.00;2.30;;;10.10;99.90;;;;;;4930088;29;20031;-63
2022/11/02 06:51:51;;;;;;;11.63;2.58;;;10.10;99.90;;;;;;4932301;29;20051;-62
2022/11/02 06:54:17;;;;;;;11.75;2.63;;;10.10;99.90;;;;;;4933153;29;20040;-63
2022/11/02 06:56:42;;;;;;;8.65;2.50;;;10.10;99.90;;;;;;4920460;29;20044;-64
2022/11/02 06:59:08;;;;;;;9.60;2.50;;;10.10;99.90;;;;;;4915585;29;20064;-62
2022/11/02 07:01:34;;;;;;;9.80;2.35;;;10.20;99.90;;;;;;4933228;29;20455;-63
2022/11/02 07:04:03;;;;;;;9.23;2.70;;;10.20;99.90;;;;;;4919898;29;20070;-64
2022/11/02 07:06:28;;;;;;;14.65;2.92;;;10.30;99.90;;;;;;4933464;29;20544;-64
2022/11/02 07:08:54;;;;;;;13.90;2.95;;;10.20;99.90;;;;;;4913901;29;20131;-63
2022/11/02 07:11:20;;;;;;;9.10;2.47;;;10.30;99.90;;;;;;4913571;29;20123;-62
2022/11/02 07:13:46;;;;;;;8.40;2.03;;;10.20;99.90;;;;;;4927643;29;20084;-64
2022/11/02 07:16:12;;;;;;;7.55;2.53;;;10.20;99.90;;;;;;4934052;29;20047;-62
2022/11/02 07:18:37;;;;;;;13.48;2.67;;;10.20;99.90;;;;;;4925769;29;20039;-64
2022/11/02 07:21:03;;;;;;;14.35;2.78;;;10.30;99.90;;;;;;4926703;29;20122;-63
2022/11/02 07:23:29;;;;;;;11.10;2.63;;;10.30;99.90;;;;;;4931759;29;20052;-64
2022/11/02 07:25:55;;;;;;;13.20;2.25;;;10.30;99.90;;;;;;4929563;29;20095;-64
2022/11/02 07:28:20;;;;;;;19.33;2.58;;;10.40;99.90;;;;;;4916321;29;20040;-63
2022/11/02 07:30:46;;;;;;;11.45;2.15;;;10.30;99.90;;;;;;4931023;29;20046;-65
2022/11/02 07:33:11;;;;;;;12.93;2.28;;;10.30;99.90;;;;;;4933428;29;20106;-64
2022/11/02 07:35:37;;;;;;;12.93;2.83;;;10.30;99.90;;;;;;4931611;29;20403;-63
2022/11/02 07:38:05;;;;;;;11.00;2.20;;;10.30;99.90;;;;;;4935325;29;20062;-64
2022/11/02 07:40:33;;;;;;;10.50;2.28;;;10.30;99.90;;;;;;4930438;29;20392;-63
2022/11/02 07:42:59;;;;;;;9.55;2.20;;;10.30;99.90;;;;;;4933370;29;20050;-64
2022/11/02 07:45:24;;;;;;;11.40;2.28;;;10.30;99.90;;;;;;4934807;29;20035;-63
2022/11/02 07:47:50;;;;;;;10.82;2.05;;;10.30;99.90;;;;;;4931493;29;20031;-63
2022/11/02 07:50:19;;;;;;;14.85;2.47;;;10.30;99.90;;;;;;4932980;29;20074;-62
2022/11/02 07:52:46;;;;;;;7.25;1.95;;;10.30;99.90;;;;;;4935139;29;20677;-62
2022/11/02 07:55:13;;;;;;;8.50;2.10;;;10.30;99.90;;;;;;4932095;29;20045;-63
2022/11/02 07:57:39;;;;;;;10.88;2.90;;;10.20;99.90;;;;;;4933193;29;20145;-63
2022/11/02 08:00:05;;;;;;;9.65;2.35;;;10.20;99.90;;;;;;4897632;29;20047;-64
2022/11/02 08:02:31;;;;;;;10.75;1.92;;;10.20;99.90;;;;;;4917224;29;20055;-63
2022/11/02 08:04:56;;;;;;;7.10;1.90;;;10.30;99.90;;;;;;4918115;29;20047;-64
2022/11/02 08:07:22;;;;;;;7.30;1.95;;;10.40;99.90;;;;;;4934272;29;20569;-65
2022/11/02 08:09:47;;;;;;;9.43;1.73;;;10.40;99.90;;;;;;4929438;29;20472;-62
2022/11/02 08:12:13;;;;;;;9.38;1.45;;;10.40;99.90;;;;;;4932691;29;20090;-62
2022/11/02 08:14:38;;;;;;;8.88;1.50;;;10.40;99.90;;;;;;4916932;29;20035;-64
2022/11/02 08:17:04;;;;;;;6.43;2.05;;;10.40;99.90;;;;;;4930435;29;20092;-64
2022/11/02 08:19:29;;;;;;;8.52;1.73;;;10.50;99.90;;;;;;4932276;29;20039;-63
2022/11/02 08:21:55;;;;;;;9.80;1.77;;;10.60;99.90;;;;;;4932111;29;20050;-65
2022/11/02 08:24:20;;;;;;;5.13;1.48;;;10.60;99.90;;;;;;4933285;29;20057;-62
2022/11/02 08:26:46;;;;;;;6.60;1.20;;;10.60;99.90;;;;;;4913381;29;20044;-64
2022/11/02 08:29:12;;;;;;;8.85;1.48;;;10.70;99.90;;;;;;4932865;29;20087;-64
2022/11/02 08:31:37;;;;;;;8.57;2.20;;;10.80;99.90;;;;;;4931521;29;20036;-64
2022/11/02 08:34:03;;;;;;;5.85;1.55;;;10.80;99.90;;;;;;4932879;29;20038;-65
2022/11/02 08:36:28;;;;;;;5.55;1.80;;;11.00;99.90;;;;;;4934751;29;20054;-63
2022/11/02 08:38:54;;;;;;;9.15;1.75;;;11.10;99.90;;;;;;4933076;29;20079;-64
2022/11/02 08:41:19;;;;;;;6.03;1.60;;;11.00;99.90;;;;;;4933912;29;20044;-64
2022/11/02 08:43:45;;;;;;;6.25;1.73;;;11.00;99.90;;;;;;4935124;29;20051;-65
2022/11/02 08:46:10;;;;;;;9.20;1.80;;;11.10;99.90;;;;;;4908527;29;20054;-63
2022/11/02 08:48:36;;;;;;;6.03;1.48;;;11.10;99.90;;;;;;4935016;29;20377;-63
2022/11/02 08:51:02;;;;;;;7.60;1.70;;;11.20;99.90;;;;;;4935597;29;20139;-63
2022/11/02 08:53:27;;;;;;;7.43;1.60;;;11.20;99.90;;;;;;4934998;29;20036;-63
2022/11/02 08:55:57;;;;;;;6.80;1.50;;;11.10;99.90;;;;;;4933422;29;20050;-63
2022/11/02 08:58:23;;;;;;;7.15;1.60;;;11.10;99.90;;;;;;4933253;29;20067;-63
2022/11/02 09:00:52;;;;;;;6.93;1.30;;;11.10;99.90;;;;;;4931228;29;20189;-64
2022/11/02 09:03:18;;;;;;;9.50;1.63;;;11.10;99.90;;;;;;4907674;29;20079;-64
2022/11/02 09:05:45;;;;;;;5.93;1.15;;;11.10;99.90;;;;;;4925899;29;20040;-63
2022/11/02 09:08:21;;;;;;;9.10;1.50;;;11.30;99.90;;;;;;4931096;29;20480;-63
2022/11/02 09:10:50;;;;;;;10.55;1.65;;;11.40;99.90;;;;;;4931237;29;20447;-64
2022/11/02 09:13:19;;;;;;;9.57;1.33;;;11.50;99.90;;;;;;4914852;29;20036;-64
2022/11/02 09:15:49;;;;;;;7.18;1.35;;;11.70;99.90;;;;;;4932417;29;20047;-65
2022/11/02 09:18:15;;;;;;;10.07;1.45;;;11.80;99.90;;;;;;4934388;29;20047;-64
2022/11/02 09:20:40;;;;;;;7.05;1.77;;;11.90;99.90;;;;;;4916809;29;20499;-62
2022/11/02 09:23:06;;;;;;;5.32;1.38;;;12.00;99.90;;;;;;4926125;29;20040;-64
2022/11/02 09:25:32;;;;;;;5.82;1.23;;;12.10;99.90;;;;;;4932677;29;20071;-63
2022/11/02 09:27:58;;;;;;;8.90;1.45;;;12.10;99.90;;;;;;4931941;29;20055;-64
2022/11/02 09:30:25;;;;;;;13.45;2.00;;;12.30;99.90;;;;;;4930014;29;20028;-64
2022/11/02 09:32:56;;;;;;;6.35;1.20;;;12.30;99.90;;;;;;4916177;29;20573;-63
2022/11/02 09:35:22;;;;;;;6.25;1.45;;;12.30;99.90;;;;;;4915651;29;20364;-65
2022/11/02 09:37:48;;;;;;;4.32;1.20;;;12.40;99.90;;;;;;4921830;29;20039;-64
2022/11/02 09:40:35;;;;;;;6.50;1.70;;;12.40;99.90;;;;;;4911457;29;20096;-63
2022/11/02 09:43:30;;;;;;;10.90;1.30;;;12.50;99.90;;;;;;4925626;29;20047;-63
2022/11/02 09:46:09;;;;;;;6.50;1.05;;;12.30;99.90;;;;;;4927471;29;20055;-63
2022/11/02 09:48:55;;;;;;;4.70;1.10;;;12.30;99.90;;;;;;4932410;29;20461;-64
2022/11/02 09:52:00;;;;;;;4.88;1.40;;;12.30;99.90;;;;;;4913419;29;20492;-62
2022/11/02 09:54:39;;;;;;;8.63;1.40;;;12.40;99.90;;;;;;4903289;29;20050;-63
2022/11/02 09:57:15;;;;;;;16.10;1.40;;;12.40;99.90;;;;;;4930219;29;20047;-65
2022/11/02 09:59:41;;;;;;;6.97;1.08;;;12.40;99.90;;;;;;4913799;29;20055;-63
2022/11/02 10:02:31;;;;;;;6.22;1.48;;;12.50;99.90;;;;;;4929867;29;20040;-64
2022/11/02 10:05:15;;;;;;;6.55;1.15;;;12.50;99.90;;;;;;4933459;29;20040;-63
2022/11/02 10:07:59;;;;;;;6.15;1.60;;;12.50;99.90;;;;;;4933071;29;20646;-64
2022/11/02 10:10:32;;;;;;;8.10;1.35;;;12.40;99.90;;;;;;4903256;29;20044;-64
2022/11/02 10:13:06;;;;;;;5.72;1.33;;;12.50;99.90;;;;;;4937131;29;20549;-65
2022/11/02 10:15:38;;;;;;;8.73;1.50;;;12.50;99.90;;;;;;4935013;29;20394;-63
2022/11/02 10:18:10;;;;;;;8.05;1.30;;;12.50;99.90;;;;;;4916008;29;20089;-64
2022/11/02 10:20:43;;;;;;;7.60;1.42;;;12.50;99.90;;;;;;4935632;29;20040;-63
2022/11/02 10:23:18;;;;;;;6.70;1.20;;;12.50;99.90;;;;;;4920383;29;20414;-63
2022/11/02 10:25:46;;;;;;;7.32;1.60;;;12.40;99.90;;;;;;4922387;29;20047;-64
2022/11/02 10:28:17;;;;;;;6.47;1.40;;;12.50;99.90;;;;;;4934408;29;20384;-63
2022/11/02 10:30:44;;;;;;;8.77;1.27;;;12.40;99.90;;;;;;4932192;29;20365;-64
2022/11/02 10:33:13;;;;;;;8.63;1.50;;;12.40;99.90;;;;;;4933001;29;20054;-64
2022/11/02 10:36:32;;;;;;;8.65;1.92;;;12.60;99.90;;;;;;4920802;29;20135;-64
2022/11/02 10:39:03;;;;;;;6.78;1.60;;;12.70;99.90;;;;;;4909276;29;20131;-64
2022/11/02 10:42:01;;;;;;;6.00;1.27;;;12.70;99.90;;;;;;4926313;29;20048;-63
2022/11/02 10:44:52;;;;;;;7.55;1.30;;;12.80;99.90;;;;;;4935434;29;20059;-63
2022/11/02 10:47:20;;;;;;;10.25;1.40;;;12.80;99.90;;;;;;4911423;29;20123;-64
2022/11/02 10:50:21;;;;;;;12.85;1.98;;;12.80;99.90;;;;;;4934788;29;20048;-63
2022/11/02 10:52:46;;;;;;;11.90;1.40;;;12.70;99.90;;;;;;4928825;29;20492;-63
2022/11/02 10:55:42;;;;;;;7.07;1.52;;;12.70;99.90;;;;;;4935059;29;20043;-63
2022/11/02 10:58:14;;;;;;;7.60;1.95;;;12.70;99.90;;;;;;4917925;29;20088;-64
2022/11/02 11:00:41;;;;;;;9.45;1.55;;;12.70;99.90;;;;;;4934217;29;20826;-64
2022/11/02 11:03:13;;;;;;;8.13;1.88;;;12.70;99.90;;;;;;4934688;29;20044;-62
2022/11/02 11:05:59;;;;;;;13.40;1.55;;;12.60;99.90;;;;;;4931280;29;20047;-63
2022/11/02 11:08:52;;;;;;;8.77;1.45;;;12.60;99.90;;;;;;4917347;29;20066;-62
2022/11/02 11:11:26;;;;;;;9.35;1.40;;;12.70;99.90;;;;;;4924615;29;20059;-64
2022/11/02 11:14:11;;;;;;;11.43;1.85;;;12.80;99.90;;;;;;4916619;29;20083;-65
2022/11/02 11:16:41;;;;;;;6.35;1.05;;;12.80;99.90;;;;;;4929540;29;20049;-63
2022/11/02 11:19:22;;;;;;;5.32;1.10;;;13.00;99.90;;;;;;4932024;29;20507;-64
2022/11/02 11:21:49;;;;;;;13.15;1.95;;;13.40;99.90;;;;;;4935530;29;20207;-63
2022/11/02 11:24:33;;;;;;;9.07;1.33;;;13.70;99.90;;;;;;4934414;29;20409;-63
2022/11/02 11:27:16;;;;;;;7.78;1.27;;;13.70;99.90;;;;;;4929211;29;20047;-64
2022/11/02 11:30:00;;;;;;;9.00;1.40;;;13.80;99.90;;;;;;4916987;29;20059;-63
2022/11/02 11:32:28;;;;;;;7.97;1.25;;;13.80;99.90;;;;;;4912450;29;20036;-63
2022/11/02 11:34:57;;;;;;;7.82;1.40;;;13.80;99.90;;;;;;4913463;29;20040;-63
2022/11/02 11:37:24;;;;;;;12.02;1.70;;;13.90;99.80;;;;;;4919341;29;20047;-65
2022/11/02 11:39:54;;;;;;;7.25;1.50;;;14.00;99.90;;;;;;4908784;29;20052;-63
2022/11/02 11:42:23;;;;;;;4.32;1.10;;;14.30;99.50;;;;;;4934634;29;20055;-63
2022/11/02 11:45:05;;;;;;;6.40;1.20;;;14.40;97.80;;;;;;4933097;29;20119;-63
2022/11/02 11:47:37;;;;;;;10.57;1.15;;;14.50;98.50;;;;;;4924829;29;20384;-64
2022/11/02 11:50:10;;;;;;;7.55;1.10;;;14.50;98.30;;;;;;4935491;29;20039;-63
2022/11/02 11:52:36;;;;;;;8.23;1.52;;;14.60;98.40;;;;;;4912090;29;20058;-63
2022/11/02 11:55:22;;;;;;;3.83;1.00;;;14.60;99.10;;;;;;4934182;29;20931;-63
2022/11/02 11:58:20;;;;;;;4.85;1.10;;;14.60;95.40;;;;;;4932021;29;20508;-63
2022/11/02 12:01:16;;;;;;;7.65;1.10;;;14.70;97.00;;;;;;4933187;29;20122;-64
2022/11/02 12:03:52;;;;;;;3.42;0.93;;;14.70;96.40;;;;;;4931415;29;20043;-63
2022/11/02 12:06:21;;;;;;;2.88;0.90;;;14.60;94.20;;;;;;4932860;29;20047;-64
2022/11/02 12:09:05;;;;;;;5.15;0.90;;;14.60;98.00;;;;;;4933334;29;20488;-63
2022/11/02 12:11:37;;;;;;;5.47;0.98;;;14.60;95.50;;;;;;4931110;29;20443;-63
2022/11/02 12:14:43;;;;;;;5.07;1.05;;;14.50;94.30;;;;;;4933194;29;20044;-64
2022/11/02 12:17:35;;;;;;;9.68;1.25;;;14.40;94.70;;;;;;4930754;29;20065;-63
2022/11/02 12:20:13;;;;;;;7.20;1.10;;;14.40;93.00;;;;;;4917123;29;20085;-64
2022/11/02 12:23:16;;;;;;;5.50;1.17;;;14.30;96.80;;;;;;4920184;29;20139;-63
2022/11/02 12:26:10;;;;;;;6.85;0.98;;;14.30;93.70;;;;;;4913641;29;20051;-64
2022/11/02 12:29:01;;;;;;;5.72;1.52;;;14.30;96.40;;;;;;4922272;29;20058;-65
2022/11/02 12:31:34;;;;;;;6.18;1.15;;;14.30;94.70;;;;;;4915169;29;20123;-62
2022/11/02 12:34:23;;;;;;;5.70;0.85;;;14.30;94.10;;;;;;4931602;29;20044;-64
2022/11/02 12:36:52;;;;;;;8.55;1.67;;;14.30;93.50;;;;;;4914863;29;20056;-63
2022/11/02 12:39:29;;;;;;;9.13;1.20;;;14.30;94.20;;;;;;4933717;29;20130;-63
2022/11/02 12:42:13;;;;;;;6.70;1.02;;;14.30;93.30;;;;;;4931929;29;20404;-64
2022/11/02 12:44:45;;;;;;;4.88;0.75;;;14.20;94.20;;;;;;4932712;29;20056;-63
2022/11/02 12:47:34;;;;;;;7.72;1.60;;;14.10;93.10;;;;;;4914599;29;20051;-64
2022/11/02 12:50:14;;;;;;;5.95;1.05;;;14.10;92.60;;;;;;4922857;29;20051;-64
2022/11/02 12:52:46;;;;;;;7.72;1.13;;;14.00;94.90;;;;;;4907991;29;20700;-64
2022/11/02 12:55:17;;;;;;;6.95;1.33;;;14.00;95.10;;;;;;4926310;29;20047;-64
2022/11/02 12:57:44;;;;;;;4.40;1.20;;;13.90;95.40;;;;;;4909155;29;20901;-64
2022/11/02 13:00:20;;;;;;;6.68;1.40;;;13.80;96.40;;;;;;4935519;29;20138;-64
2022/11/02 13:03:10;;;;;;;4.32;1.30;;;13.60;95.10;;;;;;4914186;29;20044;-64
2022/11/02 13:05:49;;;;;;;8.55;1.33;;;13.60;95.40;;;;;;4935183;29;20047;-64
2022/11/02 13:08:18;;;;;;;8.57;1.35;;;13.60;95.70;;;;;;4913388;29;20044;-65
2022/11/02 13:10:50;;;;;;;6.32;1.50;;;13.60;97.40;;;;;;4923031;29;20035;-63
2022/11/02 13:13:23;;;;;;;5.10;1.25;;;13.70;97.40;;;;;;4899685;29;20111;-64
2022/11/02 13:15:50;;;;;;;8.65;1.30;;;13.80;97.80;;;;;;4933829;29;20082;-63
2022/11/02 13:18:26;;;;;;;7.93;1.23;;;13.90;98.30;;;;;;4932076;29;20047;-63
2022/11/02 13:20:55;;;;;;;3.88;1.30;;;14.00;97.50;;;;;;4933372;29;20092;-63
2022/11/02 13:23:33;;;;;;;8.77;1.17;;;14.20;97.80;;;;;;4916941;29;20095;-64